sensor_id;sensor_type;location;lat;lon;timestamp;pressure;altitude;pressure_sealevel;temperature;humidity
77288;BME280;66345;42.694;23.346;2023-05-16T00:00:47;95225.59;;;13.87;78.71
77288;BME280;66345;42.694;23.346;2023-05-16T00:03:13;95229.88;;;13.95;78.60
77288;BME280;66345;42.694;23.346;2023-05-16T00:05:38;95226.69;;;13.79;79.11
77288;BME280;66345;42.694;23.346;2023-05-16T00:08:04;95228.16;;;13.75;79.39
77288;BME280;66345;42.694;23.346;2023-05-16T00:10:30;95216.94;;;13.60;79.74
77288;BME280;66345;42.694;23.346;2023-05-16T00:12:55;95218.16;;;13.64;79.98
77288;BME280;66345;42.694;23.346;2023-05-16T00:15:21;95218.53;;;13.68;79.81
77288;BME280;66345;42.694;23.346;2023-05-16T00:17:47;95206.88;;;13.69;79.58
77288;BME280;66345;42.694;23.346;2023-05-16T00:20:14;95206.88;;;13.69;79.76
77288;BME280;66345;42.694;23.346;2023-05-16T00:22:41;95206.88;;;13.69;79.50
77288;BME280;66345;42.694;23.346;2023-05-16T00:25:07;95211.59;;;13.60;79.97
77288;BME280;66345;42.694;23.346;2023-05-16T00:27:35;95198.50;;;13.58;79.89
77288;BME280;66345;42.694;23.346;2023-05-16T00:30:01;95202.75;;;13.66;79.43
77288;BME280;66345;42.694;23.346;2023-05-16T00:32:27;95201.69;;;13.74;79.08
77288;BME280;66345;42.694;23.346;2023-05-16T00:34:52;95211.91;;;13.83;78.70
77288;BME280;66345;42.694;23.346;2023-05-16T00:37:17;95208.41;;;13.83;78.53
77288;BME280;66345;42.694;23.346;2023-05-16T00:39:43;95203.09;;;13.83;78.60
77288;BME280;66345;42.694;23.346;2023-05-16T00:42:08;95203.19;;;13.95;78.55
77288;BME280;66345;42.694;23.346;2023-05-16T00:44:34;95193.78;;;13.92;78.47
77288;BME280;66345;42.694;23.346;2023-05-16T00:46:59;95190.50;;;13.90;78.59
77288;BME280;66345;42.694;23.346;2023-05-16T00:49:27;95181.56;;;13.78;78.89
77288;BME280;66345;42.694;23.346;2023-05-16T00:51:53;95180.56;;;13.72;79.39
77288;BME280;66345;42.694;23.346;2023-05-16T00:54:21;95174.19;;;13.73;79.07
77288;BME280;66345;42.694;23.346;2023-05-16T00:56:47;95173.97;;;13.75;78.94
77288;BME280;66345;42.694;23.346;2023-05-16T00:59:13;95161.03;;;13.78;78.78
77288;BME280;66345;42.694;23.346;2023-05-16T01:01:39;95176.41;;;13.83;78.47
77288;BME280;66345;42.694;23.346;2023-05-16T01:04:06;95164.84;;;13.89;78.10
77288;BME280;66345;42.694;23.346;2023-05-16T01:06:33;95166.94;;;13.87;78.37
77288;BME280;66345;42.694;23.346;2023-05-16T01:08:59;95161.41;;;13.82;78.36
77288;BME280;66345;42.694;23.346;2023-05-16T01:11:37;95165.13;;;13.81;78.73
77288;BME280;66345;42.694;23.346;2023-05-16T01:17:06;95167.03;;;13.74;78.83
77288;BME280;66345;42.694;23.346;2023-05-16T01:19:56;95159.31;;;13.91;78.66
77288;BME280;66345;42.694;23.346;2023-05-16T01:22:34;95158.81;;;14.00;78.25
77288;BME280;66345;42.694;23.346;2023-05-16T01:25:38;95155.41;;;13.93;78.52
77288;BME280;66345;42.694;23.346;2023-05-16T01:47:08;95124.41;;;13.67;78.26
77288;BME280;66345;42.694;23.346;2023-05-16T01:49:46;95127.69;;;13.69;78.38
77288;BME280;66345;42.694;23.346;2023-05-16T01:52:55;95128.91;;;13.67;78.33
77288;BME280;66345;42.694;23.346;2023-05-16T01:55:13;95125.84;;;13.70;77.99
77288;BME280;66345;42.694;23.346;2023-05-16T01:57:41;95121.53;;;13.69;77.97
77288;BME280;66345;42.694;23.346;2023-05-16T02:00:07;95114.53;;;13.68;78.04
77288;BME280;66345;42.694;23.346;2023-05-16T02:02:33;95116.41;;;13.67;78.05
77288;BME280;66345;42.694;23.346;2023-05-16T02:04:58;95126.44;;;13.72;77.69
77288;BME280;66345;42.694;23.346;2023-05-16T02:07:23;95116.63;;;13.66;77.80
77288;BME280;66345;42.694;23.346;2023-05-16T02:09:49;95117.47;;;13.59;78.17
77288;BME280;66345;42.694;23.346;2023-05-16T02:12:15;95119.78;;;13.56;78.40
77288;BME280;66345;42.694;23.346;2023-05-16T02:14:40;95122.81;;;13.59;78.56
77288;BME280;66345;42.694;23.346;2023-05-16T02:17:06;95112.78;;;13.62;78.15
77288;BME280;66345;42.694;23.346;2023-05-16T02:19:31;95102.09;;;13.62;78.30
77288;BME280;66345;42.694;23.346;2023-05-16T02:21:57;95104.59;;;13.56;78.19
77288;BME280;66345;42.694;23.346;2023-05-16T02:24:22;95116.88;;;13.57;78.25
77288;BME280;66345;42.694;23.346;2023-05-16T02:26:48;95110.38;;;13.53;78.35
77288;BME280;66345;42.694;23.346;2023-05-16T02:29:13;95103.28;;;13.66;78.24
77288;BME280;66345;42.694;23.346;2023-05-16T02:31:40;95109.22;;;13.68;77.92
77288;BME280;66345;42.694;23.346;2023-05-16T02:34:07;95108.47;;;13.60;78.11
77288;BME280;66345;42.694;23.346;2023-05-16T02:36:32;95102.44;;;13.72;77.73
77288;BME280;66345;42.694;23.346;2023-05-16T02:39:01;95111.72;;;13.63;77.89
77288;BME280;66345;42.694;23.346;2023-05-16T02:41:28;95120.91;;;13.67;78.06
77288;BME280;66345;42.694;23.346;2023-05-16T02:43:53;95122.41;;;13.63;78.08
77288;BME280;66345;42.694;23.346;2023-05-16T02:46:27;95130.72;;;13.73;77.67
77288;BME280;66345;42.694;23.346;2023-05-16T02:48:54;95124.97;;;13.76;77.65
77288;BME280;66345;42.694;23.346;2023-05-16T02:51:21;95103.28;;;13.66;78.00
77288;BME280;66345;42.694;23.346;2023-05-16T02:53:48;95110.91;;;13.62;78.02
77288;BME280;66345;42.694;23.346;2023-05-16T02:56:13;95113.31;;;13.70;77.92
77288;BME280;66345;42.694;23.346;2023-05-16T02:58:39;95101.63;;;13.71;77.80
77288;BME280;66345;42.694;23.346;2023-05-16T03:01:04;95101.63;;;13.71;77.82
77288;BME280;66345;42.694;23.346;2023-05-16T03:03:30;95103.06;;;13.67;77.66
77288;BME280;66345;42.694;23.346;2023-05-16T03:05:59;95106.63;;;13.61;78.02
77288;BME280;66345;42.694;23.346;2023-05-16T03:08:25;95107.72;;;13.78;77.42
77288;BME280;66345;42.694;23.346;2023-05-16T03:10:50;95107.22;;;13.63;77.93
77288;BME280;66345;42.694;23.346;2023-05-16T03:13:15;95105.38;;;13.64;77.80
77288;BME280;66345;42.694;23.346;2023-05-16T03:15:41;95110.88;;;13.69;77.85
77288;BME280;66345;42.694;23.346;2023-05-16T03:18:06;95102.25;;;13.67;78.10
77288;BME280;66345;42.694;23.346;2023-05-16T03:20:32;95105.94;;;13.66;77.97
77288;BME280;66345;42.694;23.346;2023-05-16T03:22:58;95103.88;;;13.68;77.84
77288;BME280;66345;42.694;23.346;2023-05-16T03:25:24;95099.22;;;13.63;78.15
77288;BME280;66345;42.694;23.346;2023-05-16T03:27:50;95099.16;;;13.70;77.93
77288;BME280;66345;42.694;23.346;2023-05-16T03:30:16;95094.66;;;13.70;78.05
77288;BME280;66345;42.694;23.346;2023-05-16T03:32:41;95098.72;;;13.73;77.56
77288;BME280;66345;42.694;23.346;2023-05-16T03:35:09;95096.50;;;13.70;77.83
77288;BME280;66345;42.694;23.346;2023-05-16T03:37:35;95095.84;;;13.74;77.57
77288;BME280;66345;42.694;23.346;2023-05-16T03:40:02;95099.13;;;13.76;77.79
77288;BME280;66345;42.694;23.346;2023-05-16T03:42:30;95090.91;;;13.78;77.71
77288;BME280;66345;42.694;23.346;2023-05-16T03:44:56;95096.00;;;13.79;77.74
77288;BME280;66345;42.694;23.346;2023-05-16T03:47:22;95097.84;;;13.79;77.65
77288;BME280;66345;42.694;23.346;2023-05-16T03:49:47;95103.63;;;13.76;77.91
77288;BME280;66345;42.694;23.346;2023-05-16T03:52:13;95106.31;;;13.76;77.86
77288;BME280;66345;42.694;23.346;2023-05-16T03:54:38;95098.09;;;13.77;78.01
77288;BME280;66345;42.694;23.346;2023-05-16T03:57:04;95094.97;;;13.80;77.60
77288;BME280;66345;42.694;23.346;2023-05-16T03:59:30;95105.28;;;13.77;78.02
77288;BME280;66345;42.694;23.346;2023-05-16T04:01:55;95098.31;;;13.76;77.95
77288;BME280;66345;42.694;23.346;2023-05-16T04:04:21;95090.09;;;13.77;77.63
77288;BME280;66345;42.694;23.346;2023-05-16T04:06:46;95099.78;;;13.90;77.20
77288;BME280;66345;42.694;23.346;2023-05-16T04:09:12;95095.31;;;13.91;77.34
77288;BME280;66345;42.694;23.346;2023-05-16T04:11:37;95096.13;;;13.91;77.26
77288;BME280;66345;42.694;23.346;2023-05-16T04:14:03;95101.81;;;13.95;77.35
77288;BME280;66345;42.694;23.346;2023-05-16T04:16:28;95104.31;;;13.89;77.45
77288;BME280;66345;42.694;23.346;2023-05-16T04:18:54;95102.03;;;13.93;77.19
77288;BME280;66345;42.694;23.346;2023-05-16T04:21:21;95110.06;;;13.93;77.23
77288;BME280;66345;42.694;23.346;2023-05-16T04:23:46;95101.00;;;13.94;77.25
77288;BME280;66345;42.694;23.346;2023-05-16T04:26:12;95111.63;;;14.01;77.05
77288;BME280;66345;42.694;23.346;2023-05-16T04:28:38;95100.94;;;14.01;76.79
77288;BME280;66345;42.694;23.346;2023-05-16T04:31:04;95101.31;;;14.04;76.95
77288;BME280;66345;42.694;23.346;2023-05-16T04:33:30;95098.06;;;14.02;76.56
77288;BME280;66345;42.694;23.346;2023-05-16T04:35:55;95101.47;;;14.09;76.53
77288;BME280;66345;42.694;23.346;2023-05-16T04:38:22;95092.44;;;14.10;76.49
77288;BME280;66345;42.694;23.346;2023-05-16T04:40:48;95088.13;;;14.09;76.54
77288;BME280;66345;42.694;23.346;2023-05-16T04:43:15;95091.41;;;14.11;76.39
77288;BME280;66345;42.694;23.346;2023-05-16T04:45:42;95094.22;;;14.16;76.16
77288;BME280;66345;42.694;23.346;2023-05-16T04:48:07;95091.28;;;14.25;75.76
77288;BME280;66345;42.694;23.346;2023-05-16T04:50:32;95095.41;;;14.21;75.75
77288;BME280;66345;42.694;23.346;2023-05-16T04:52:58;95096.59;;;14.25;75.57
77288;BME280;66345;42.694;23.346;2023-05-16T04:55:23;95098.81;;;14.28;75.80
77288;BME280;66345;42.694;23.346;2023-05-16T04:57:49;95101.06;;;14.31;75.20
77288;BME280;66345;42.694;23.346;2023-05-16T05:00:15;95099.00;;;14.33;75.29
77288;BME280;66345;42.694;23.346;2023-05-16T05:02:41;95098.34;;;14.37;75.18
77288;BME280;66345;42.694;23.346;2023-05-16T05:05:08;95093.41;;;14.34;75.14
77288;BME280;66345;42.694;23.346;2023-05-16T05:07:33;95087.66;;;14.37;75.35
77288;BME280;66345;42.694;23.346;2023-05-16T05:09:58;95090.56;;;14.36;75.35
77288;BME280;66345;42.694;23.346;2023-05-16T05:12:24;95094.63;;;14.38;75.43
77288;BME280;66345;42.694;23.346;2023-05-16T05:14:51;95094.84;;;14.37;74.94
77288;BME280;66345;42.694;23.346;2023-05-16T05:17:16;95110.63;;;14.38;75.10
77288;BME280;66345;42.694;23.346;2023-05-16T05:19:42;95099.38;;;14.36;74.73
77288;BME280;66345;42.694;23.346;2023-05-16T05:22:08;95108.31;;;14.42;74.92
77288;BME280;66345;42.694;23.346;2023-05-16T05:24:33;95096.59;;;14.43;74.17
77288;BME280;66345;42.694;23.346;2023-05-16T05:26:58;95102.53;;;14.52;73.80
77288;BME280;66345;42.694;23.346;2023-05-16T05:29:24;95103.34;;;14.52;74.21
77288;BME280;66345;42.694;23.346;2023-05-16T05:31:50;95098.19;;;14.51;74.21
77288;BME280;66345;42.694;23.346;2023-05-16T05:34:15;95086.06;;;14.55;73.98
77288;BME280;66345;42.694;23.346;2023-05-16T05:36:41;95075.81;;;14.52;74.13
77288;BME280;66345;42.694;23.346;2023-05-16T05:39:07;95071.06;;;14.54;74.18
77288;BME280;66345;42.694;23.346;2023-05-16T05:41:32;95073.50;;;14.55;74.48
77288;BME280;66345;42.694;23.346;2023-05-16T05:43:58;95078.03;;;14.55;74.48
77288;BME280;66345;42.694;23.346;2023-05-16T05:46:23;95072.25;;;14.58;74.36
77288;BME280;66345;42.694;23.346;2023-05-16T05:48:50;95075.13;;;14.56;74.60
77288;BME280;66345;42.694;23.346;2023-05-16T05:51:15;95072.47;;;14.56;74.77
77288;BME280;66345;42.694;23.346;2023-05-16T05:53:42;95072.47;;;14.56;74.78
77288;BME280;66345;42.694;23.346;2023-05-16T05:56:07;95062.75;;;14.62;74.25
77288;BME280;66345;42.694;23.346;2023-05-16T05:58:33;95073.22;;;14.63;74.19
77288;BME280;66345;42.694;23.346;2023-05-16T06:00:58;95064.38;;;14.63;74.23
77288;BME280;66345;42.694;23.346;2023-05-16T06:03:23;95074.72;;;14.59;74.22
77288;BME280;66345;42.694;23.346;2023-05-16T06:05:49;95068.25;;;14.67;74.23
77288;BME280;66345;42.694;23.346;2023-05-16T06:08:14;95059.53;;;14.71;73.87
77288;BME280;66345;42.694;23.346;2023-05-16T06:10:40;95067.88;;;14.82;73.51
77288;BME280;66345;42.694;23.346;2023-05-16T06:13:08;95071.34;;;14.82;73.31
77288;BME280;66345;42.694;23.346;2023-05-16T06:15:33;95066.09;;;14.76;73.53
77288;BME280;66345;42.694;23.346;2023-05-16T06:17:59;95068.47;;;14.95;73.04
77288;BME280;66345;42.694;23.346;2023-05-16T06:20:24;95070.81;;;14.92;73.02
77288;BME280;66345;42.694;23.346;2023-05-16T06:22:50;95057.59;;;14.97;73.43
77288;BME280;66345;42.694;23.346;2023-05-16T06:25:15;95061.19;;;15.03;72.94
77288;BME280;66345;42.694;23.346;2023-05-16T06:27:41;95078.84;;;15.04;72.79
77288;BME280;66345;42.694;23.346;2023-05-16T06:30:06;95074.69;;;15.08;73.15
77288;BME280;66345;42.694;23.346;2023-05-16T06:32:32;95077.84;;;15.05;73.36
77288;BME280;66345;42.694;23.346;2023-05-16T06:34:58;95067.00;;;14.99;73.54
77288;BME280;66345;42.694;23.346;2023-05-16T06:37:23;95069.81;;;15.05;73.35
77288;BME280;66345;42.694;23.346;2023-05-16T06:39:50;95055.03;;;15.02;73.16
77288;BME280;66345;42.694;23.346;2023-05-16T06:42:15;95051.31;;;15.03;73.09
77288;BME280;66345;42.694;23.346;2023-05-16T06:44:41;95054.59;;;15.05;73.07
77288;BME280;66345;42.694;23.346;2023-05-16T06:47:06;95062.56;;;14.93;73.51
77288;BME280;66345;42.694;23.346;2023-05-16T06:49:32;95064.78;;;14.96;73.53
77288;BME280;66345;42.694;23.346;2023-05-16T06:51:58;95055.03;;;15.02;72.69
77288;BME280;66345;42.694;23.346;2023-05-16T06:54:23;95051.31;;;15.03;72.90
77288;BME280;66345;42.694;23.346;2023-05-16T06:56:49;95047.16;;;15.07;72.10
77288;BME280;66345;42.694;23.346;2023-05-16T06:59:14;95033.25;;;15.17;72.42
77288;BME280;66345;42.694;23.346;2023-05-16T07:01:40;95033.47;;;15.15;72.06
77288;BME280;66345;42.694;23.346;2023-05-16T07:04:06;95035.56;;;15.13;72.07
77288;BME280;66345;42.694;23.346;2023-05-16T07:06:32;95039.53;;;15.22;71.88
77288;BME280;66345;42.694;23.346;2023-05-16T07:08:57;95035.00;;;15.23;71.95
77288;BME280;66345;42.694;23.346;2023-05-16T07:11:23;95021.88;;;15.21;71.51
77288;BME280;66345;42.694;23.346;2023-05-16T07:13:48;95037.91;;;15.33;71.11
77288;BME280;66345;42.694;23.346;2023-05-16T07:16:14;95033.09;;;15.42;70.20
77288;BME280;66345;42.694;23.346;2023-05-16T07:18:39;95029.81;;;15.40;70.11
77288;BME280;66345;42.694;23.346;2023-05-16T07:21:05;95026.44;;;15.56;69.67
77288;BME280;66345;42.694;23.346;2023-05-16T07:23:30;95014.13;;;15.55;69.52
77288;BME280;66345;42.694;23.346;2023-05-16T07:25:56;95001.56;;;15.55;69.58
77288;BME280;66345;42.694;23.346;2023-05-16T07:28:22;95007.03;;;15.61;69.01
77288;BME280;66345;42.694;23.346;2023-05-16T07:30:47;95013.13;;;15.68;68.66
77288;BME280;66345;42.694;23.346;2023-05-16T07:33:13;95018.13;;;15.76;68.13
77288;BME280;66345;42.694;23.346;2023-05-16T07:35:38;95018.63;;;15.73;68.59
77288;BME280;66345;42.694;23.346;2023-05-16T07:38:04;95008.97;;;15.72;68.47
77288;BME280;66345;42.694;23.346;2023-05-16T07:40:30;95034.66;;;15.85;68.37
77288;BME280;66345;42.694;23.346;2023-05-16T07:42:55;95023.38;;;15.82;68.38
77288;BME280;66345;42.694;23.346;2023-05-16T07:45:21;95033.59;;;15.86;68.30
77288;BME280;66345;42.694;23.346;2023-05-16T07:47:46;95031.53;;;15.88;68.57
77288;BME280;66345;42.694;23.346;2023-05-16T07:50:12;95030.94;;;15.86;68.71
77288;BME280;66345;42.694;23.346;2023-05-16T07:52:37;95030.47;;;16.00;68.37
77288;BME280;66345;42.694;23.346;2023-05-16T07:55:03;95021.03;;;15.98;67.59
77288;BME280;66345;42.694;23.346;2023-05-16T07:57:28;95014.53;;;16.17;67.48
77288;BME280;66345;42.694;23.346;2023-05-16T07:59:54;95010.88;;;16.23;67.24
77288;BME280;66345;42.694;23.346;2023-05-16T08:02:21;95019.03;;;16.17;67.11
77288;BME280;66345;42.694;23.346;2023-05-16T08:04:48;95027.53;;;16.25;67.28
77288;BME280;66345;42.694;23.346;2023-05-16T08:07:14;95029.06;;;16.21;66.56
77288;BME280;66345;42.694;23.346;2023-05-16T08:09:40;95015.78;;;16.26;66.60
77288;BME280;66345;42.694;23.346;2023-05-16T08:12:05;95013.00;;;16.21;66.69
77288;BME280;66345;42.694;23.346;2023-05-16T08:14:31;95002.97;;;16.40;66.36
77288;BME280;66345;42.694;23.346;2023-05-16T08:17:00;95005.75;;;16.33;66.29
77288;BME280;66345;42.694;23.346;2023-05-16T08:19:25;95003.28;;;16.44;66.53
77288;BME280;66345;42.694;23.346;2023-05-16T08:21:51;94995.44;;;16.54;66.15
77288;BME280;66345;42.694;23.346;2023-05-16T08:24:16;95003.47;;;16.54;66.73
77288;BME280;66345;42.694;23.346;2023-05-16T08:26:42;94998.84;;;16.49;67.09
77288;BME280;66345;42.694;23.346;2023-05-16T08:29:07;94995.97;;;16.68;66.69
77288;BME280;66345;42.694;23.346;2023-05-16T08:31:33;95002.28;;;16.61;66.65
77288;BME280;66345;42.694;23.346;2023-05-16T08:33:58;95012.06;;;16.68;67.05
77288;BME280;66345;42.694;23.346;2023-05-16T08:36:26;94997.19;;;16.72;66.52
77288;BME280;66345;42.694;23.346;2023-05-16T08:38:51;94992.41;;;16.90;66.20
77288;BME280;66345;42.694;23.346;2023-05-16T08:41:16;94985.00;;;16.81;66.25
77288;BME280;66345;42.694;23.346;2023-05-16T08:43:42;94996.78;;;16.68;66.79
77288;BME280;66345;42.694;23.346;2023-05-16T08:46:07;95000.84;;;16.82;66.35
77288;BME280;66345;42.694;23.346;2023-05-16T08:48:35;95002.19;;;16.97;66.43
77288;BME280;66345;42.694;23.346;2023-05-16T08:51:02;94993.75;;;17.05;65.21
77288;BME280;66345;42.694;23.346;2023-05-16T08:53:31;94993.72;;;17.33;64.33
77288;BME280;66345;42.694;23.346;2023-05-16T08:56:01;94990.38;;;17.43;63.12
77288;BME280;66345;42.694;23.346;2023-05-16T08:58:27;94998.00;;;17.68;62.82
77288;BME280;66345;42.694;23.346;2023-05-16T09:00:54;94995.75;;;17.93;61.65
77288;BME280;66345;42.694;23.346;2023-05-16T09:03:20;94997.47;;;17.99;62.35
77288;BME280;66345;42.694;23.346;2023-05-16T09:05:48;94995.63;;;18.44;61.04
77288;BME280;66345;42.694;23.346;2023-05-16T09:08:14;94991.00;;;19.37;58.02
77288;BME280;66345;42.694;23.346;2023-05-16T09:10:40;94992.81;;;18.99;58.80
77288;BME280;66345;42.694;23.346;2023-05-16T09:13:05;94990.25;;;18.44;59.89
77288;BME280;66345;42.694;23.346;2023-05-16T09:15:32;94985.09;;;18.59;59.82
77288;BME280;66345;42.694;23.346;2023-05-16T09:18:01;94975.00;;;18.49;60.23
77288;BME280;66345;42.694;23.346;2023-05-16T09:20:27;94988.00;;;18.36;61.18
77288;BME280;66345;42.694;23.346;2023-05-16T09:22:55;94997.38;;;18.33;60.13
77288;BME280;66345;42.694;23.346;2023-05-16T09:25:22;94999.31;;;18.60;59.83
77288;BME280;66345;42.694;23.346;2023-05-16T09:27:52;94991.25;;;18.81;59.30
77288;BME280;66345;42.694;23.346;2023-05-16T09:30:21;94993.09;;;19.03;58.69
77288;BME280;66345;42.694;23.346;2023-05-16T09:32:50;94993.06;;;18.98;59.32
77288;BME280;66345;42.694;23.346;2023-05-16T09:35:16;94995.91;;;19.13;59.14
77288;BME280;66345;42.694;23.346;2023-05-16T09:37:46;94996.63;;;18.81;58.96
77288;BME280;66345;42.694;23.346;2023-05-16T09:40:12;94984.34;;;19.12;60.01
77288;BME280;66345;42.694;23.346;2023-05-16T09:42:38;94972.91;;;19.00;59.07
77288;BME280;66345;42.694;23.346;2023-05-16T09:45:04;94981.06;;;18.62;59.31
77288;BME280;66345;42.694;23.346;2023-05-16T09:47:30;94980.06;;;18.46;60.39
77288;BME280;66345;42.694;23.346;2023-05-16T09:49:55;94986.56;;;18.28;60.80
77288;BME280;66345;42.694;23.346;2023-05-16T09:52:21;94971.44;;;18.44;60.57
77288;BME280;66345;42.694;23.346;2023-05-16T09:54:47;94968.00;;;18.48;60.54
77288;BME280;66345;42.694;23.346;2023-05-16T09:57:19;94974.56;;;18.57;59.91
77288;BME280;66345;42.694;23.346;2023-05-16T09:59:45;94969.81;;;18.65;58.44
77288;BME280;66345;42.694;23.346;2023-05-16T10:02:12;94957.31;;;19.02;57.67
77288;BME280;66345;42.694;23.346;2023-05-16T10:04:37;94967.63;;;19.10;57.27
77288;BME280;66345;42.694;23.346;2023-05-16T10:07:03;94965.25;;;18.87;58.54
77288;BME280;66345;42.694;23.346;2023-05-16T10:09:33;94972.84;;;19.54;57.58
77288;BME280;66345;42.694;23.346;2023-05-16T10:12:03;94973.91;;;20.28;54.98
77288;BME280;66345;42.694;23.346;2023-05-16T10:14:41;94974.41;;;19.77;55.83
77288;BME280;66345;42.694;23.346;2023-05-16T10:17:11;94965.56;;;19.87;56.12
77288;BME280;66345;42.694;23.346;2023-05-16T10:19:38;94960.47;;;19.53;55.64
77288;BME280;66345;42.694;23.346;2023-05-16T10:22:05;94962.84;;;19.18;56.96
77288;BME280;66345;42.694;23.346;2023-05-16T10:24:50;94973.19;;;19.58;57.16
77288;BME280;66345;42.694;23.346;2023-05-16T10:27:17;94971.16;;;19.43;57.44
77288;BME280;66345;42.694;23.346;2023-05-16T10:29:43;94969.97;;;19.98;56.44
77288;BME280;66345;42.694;23.346;2023-05-16T10:32:10;94956.06;;;19.74;55.97
77288;BME280;66345;42.694;23.346;2023-05-16T10:34:38;94950.56;;;20.01;55.89
77288;BME280;66345;42.694;23.346;2023-05-16T10:37:04;94950.41;;;19.11;58.24
77288;BME280;66345;42.694;23.346;2023-05-16T10:39:31;94952.16;;;18.96;58.81
77288;BME280;66345;42.694;23.346;2023-05-16T10:41:56;94931.63;;;19.17;58.12
77288;BME280;66345;42.694;23.346;2023-05-16T10:44:22;94928.59;;;19.08;58.81
77288;BME280;66345;42.694;23.346;2023-05-16T10:46:47;94926.91;;;18.70;58.38
77288;BME280;66345;42.694;23.346;2023-05-16T10:49:24;94900.81;;;18.97;57.89
77288;BME280;66345;42.694;23.346;2023-05-16T10:52:13;94908.69;;;19.41;57.18
77288;BME280;66345;42.694;23.346;2023-05-16T10:54:43;94906.44;;;19.60;55.45
77288;BME280;66345;42.694;23.346;2023-05-16T10:57:22;94906.09;;;19.56;55.83
77288;BME280;66345;42.694;23.346;2023-05-16T10:59:49;94918.06;;;19.33;56.76
77288;BME280;66345;42.694;23.346;2023-05-16T11:02:23;94919.91;;;19.28;57.63
77288;BME280;66345;42.694;23.346;2023-05-16T11:04:57;94924.78;;;19.04;58.50
77288;BME280;66345;42.694;23.346;2023-05-16T11:07:25;94927.13;;;19.22;58.73
77288;BME280;66345;42.694;23.346;2023-05-16T11:10:13;94924.41;;;18.90;59.85
77288;BME280;66345;42.694;23.346;2023-05-16T11:12:45;94935.34;;;19.10;58.92
77288;BME280;66345;42.694;23.346;2023-05-16T11:15:22;94925.44;;;18.84;59.69
77288;BME280;66345;42.694;23.346;2023-05-16T11:17:48;94933.34;;;18.69;60.47
77288;BME280;66345;42.694;23.346;2023-05-16T11:20:31;94931.72;;;18.68;60.35
77288;BME280;66345;42.694;23.346;2023-05-16T11:25:44;94950.75;;;18.66;60.52
77288;BME280;66345;42.694;23.346;2023-05-16T11:28:11;94944.53;;;18.88;59.94
77288;BME280;66345;42.694;23.346;2023-05-16T11:30:42;94951.41;;;19.00;60.38
77288;BME280;66345;42.694;23.346;2023-05-16T11:33:08;94945.75;;;19.34;58.17
77288;BME280;66345;42.694;23.346;2023-05-16T11:35:33;94935.91;;;19.45;57.72
77288;BME280;66345;42.694;23.346;2023-05-16T11:37:59;94936.31;;;19.58;57.86
77288;BME280;66345;42.694;23.346;2023-05-16T11:40:25;94946.41;;;19.14;58.41
77288;BME280;66345;42.694;23.346;2023-05-16T11:42:51;94929.94;;;19.05;58.85
77288;BME280;66345;42.694;23.346;2023-05-16T11:45:19;94929.75;;;19.17;58.80
77288;BME280;66345;42.694;23.346;2023-05-16T11:47:46;94924.84;;;19.41;57.95
77288;BME280;66345;42.694;23.346;2023-05-16T11:50:14;94933.22;;;19.12;58.47
77288;BME280;66345;42.694;23.346;2023-05-16T11:52:45;94916.66;;;19.26;58.08
77288;BME280;66345;42.694;23.346;2023-05-16T11:55:11;94914.53;;;19.28;58.67
77288;BME280;66345;42.694;23.346;2023-05-16T11:57:38;94914.88;;;19.41;57.79
77288;BME280;66345;42.694;23.346;2023-05-16T12:00:07;94921.97;;;19.53;57.76
77288;BME280;66345;42.694;23.346;2023-05-16T12:02:38;94906.53;;;19.38;58.37
77288;BME280;66345;42.694;23.346;2023-05-16T12:05:08;94908.69;;;19.78;57.32
77288;BME280;66345;42.694;23.346;2023-05-16T12:07:37;94899.22;;;20.18;55.99
77288;BME280;66345;42.694;23.346;2023-05-16T12:10:09;94885.75;;;20.18;55.12
77288;BME280;66345;42.694;23.346;2023-05-16T12:12:36;94881.56;;;20.47;53.86
77288;BME280;66345;42.694;23.346;2023-05-16T12:15:03;94866.72;;;20.45;53.80
77288;BME280;66345;42.694;23.346;2023-05-16T12:17:31;94875.69;;;20.66;53.72
77288;BME280;66345;42.694;23.346;2023-05-16T12:19:57;94893.47;;;20.57;54.28
77288;BME280;66345;42.694;23.346;2023-05-16T12:22:24;94900.72;;;20.51;53.99
77288;BME280;66345;42.694;23.346;2023-05-16T12:24:50;94884.34;;;20.88;53.81
77288;BME280;66345;42.694;23.346;2023-05-16T12:27:22;94882.75;;;21.02;52.69
77288;BME280;66345;42.694;23.346;2023-05-16T12:29:49;94888.38;;;20.75;53.18
77288;BME280;66345;42.694;23.346;2023-05-16T12:32:17;94876.19;;;20.63;53.01
77288;BME280;66345;42.694;23.346;2023-05-16T12:34:51;94878.06;;;20.52;54.28
77288;BME280;66345;42.694;23.346;2023-05-16T12:37:17;94880.84;;;20.83;53.48
77288;BME280;66345;42.694;23.346;2023-05-16T12:39:42;94872.41;;;20.54;54.31
77288;BME280;66345;42.694;23.346;2023-05-16T12:42:11;94881.81;;;20.41;54.91
77288;BME280;66345;42.694;23.346;2023-05-16T12:44:37;94880.22;;;20.55;54.51
77288;BME280;66345;42.694;23.346;2023-05-16T12:47:03;94881.31;;;20.59;53.81
77288;BME280;66345;42.694;23.346;2023-05-16T12:49:35;94886.31;;;20.30;55.39
77288;BME280;66345;42.694;23.346;2023-05-16T12:52:01;94885.44;;;20.04;55.71
77288;BME280;66345;42.694;23.346;2023-05-16T12:54:30;94897.44;;;19.81;56.92
77288;BME280;66345;42.694;23.346;2023-05-16T12:56:55;94895.19;;;19.68;57.39
77288;BME280;66345;42.694;23.346;2023-05-16T12:59:21;94898.09;;;19.61;57.69
77288;BME280;66345;42.694;23.346;2023-05-16T13:01:47;94901.31;;;19.26;58.23
77288;BME280;66345;42.694;23.346;2023-05-16T13:04:12;94904.19;;;19.15;58.38
77288;BME280;66345;42.694;23.346;2023-05-16T13:06:43;94894.88;;;18.95;59.47
77288;BME280;66345;42.694;23.346;2023-05-16T13:09:09;94892.91;;;18.85;59.79
77288;BME280;66345;42.694;23.346;2023-05-16T13:11:37;94902.34;;;18.88;59.65
77288;BME280;66345;42.694;23.346;2023-05-16T13:14:02;94904.72;;;18.84;59.71